createdAt,value
2023-03-13T00:00:06.309Z,11.00
2023-03-13T00:05:08.903Z,11.00
2023-03-13T00:10:10.713Z,11.00
2023-03-13T00:15:12.524Z,11.10
2023-03-13T00:20:14.112Z,11.10
2023-03-13T00:25:15.755Z,11.30
2023-03-13T00:30:17.559Z,11.30
2023-03-13T00:35:19.259Z,11.40
2023-03-13T00:40:20.810Z,11.50
2023-03-13T00:45:22.584Z,11.50
2023-03-13T00:50:24.233Z,11.40
2023-03-13T00:55:25.758Z,11.50
2023-03-13T01:00:27.383Z,11.70
2023-03-13T01:05:29.001Z,11.60
2023-03-13T01:10:30.558Z,11.30
2023-03-13T01:15:34.610Z,11.10
2023-03-13T01:20:36.222Z,11.00
2023-03-13T01:25:38.211Z,10.90
2023-03-13T01:30:39.827Z,10.80
2023-03-13T01:35:41.451Z,10.70
2023-03-13T01:40:47.321Z,10.70
2023-03-13T01:46:07.360Z,10.70
2023-03-13T01:51:15.066Z,10.70
2023-03-13T01:56:22.577Z,10.70
2023-03-13T02:01:24.679Z,10.70
2023-03-13T02:06:28.091Z,10.90
2023-03-13T02:11:35.292Z,11.30
2023-03-13T02:16:37.100Z,11.30
2023-03-13T02:21:42.789Z,11.50
2023-03-13T02:26:44.359Z,11.60
2023-03-13T02:31:46.627Z,11.70
2023-03-13T02:36:49.083Z,11.70
2023-03-13T02:41:51.561Z,11.60
2023-03-13T02:46:53.294Z,11.40
2023-03-13T02:51:57.005Z,11.30
2023-03-13T02:57:00.527Z,11.30
2023-03-13T03:02:02.209Z,11.20
2023-03-13T03:07:04.005Z,11.10
2023-03-13T03:12:05.861Z,11.20
2023-03-13T03:17:07.493Z,11.30
2023-03-13T03:22:09.105Z,11.30
2023-03-13T03:27:10.626Z,11.40
2023-03-13T03:32:12.188Z,11.40
2023-03-13T03:37:13.861Z,11.50
2023-03-13T03:42:15.453Z,11.60
2023-03-13T03:47:17.179Z,11.60
2023-03-13T03:52:18.781Z,11.60
2023-03-13T03:57:20.418Z,11.70
2023-03-13T04:02:22.142Z,11.70
2023-03-13T04:07:23.868Z,11.90
2023-03-13T04:12:25.627Z,11.70
2023-03-13T04:17:27.490Z,11.70
2023-03-13T04:22:29.085Z,11.70
2023-03-13T04:27:30.688Z,11.70
2023-03-13T04:32:32.288Z,11.90
2023-03-13T04:37:33.989Z,11.80
2023-03-13T04:42:35.603Z,11.80
2023-03-13T04:47:37.177Z,12.00
2023-03-13T04:52:38.760Z,11.90
2023-03-13T04:57:40.384Z,12.00
2023-03-13T05:02:41.994Z,12.10
2023-03-13T05:07:43.597Z,12.10
2023-03-13T05:12:45.154Z,12.30
2023-03-13T05:17:46.703Z,12.20
2023-03-13T05:22:48.246Z,12.00
2023-03-13T05:27:49.782Z,12.30
2023-03-13T05:32:51.461Z,12.40
2023-03-13T05:37:53.157Z,12.20
2023-03-13T05:42:54.754Z,12.50
2023-03-13T05:47:56.495Z,12.50
2023-03-13T05:52:58.096Z,12.60
2023-03-13T05:57:59.664Z,12.70
2023-03-13T06:03:01.279Z,12.70
2023-03-13T06:08:05.780Z,12.70
2023-03-13T06:13:18.947Z,12.70
2023-03-13T06:18:20.977Z,13.00
2023-03-13T06:23:22.541Z,13.10
2023-03-13T06:28:24.202Z,13.00
2023-03-13T06:33:26.330Z,13.00
2023-03-13T06:38:28.260Z,13.00
2023-03-13T06:43:29.894Z,13.00
2023-03-13T06:48:31.566Z,13.10
2023-03-13T06:53:33.113Z,13.20
2023-03-13T06:58:34.725Z,13.50
2023-03-13T07:03:36.915Z,13.50
2023-03-13T07:08:38.571Z,13.50
2023-03-13T07:13:40.323Z,13.50
2023-03-13T07:18:41.944Z,13.50
2023-03-13T07:23:43.526Z,13.60
2023-03-13T07:28:45.090Z,13.80
2023-03-13T07:33:47.017Z,13.80
2023-03-13T07:38:49.218Z,13.70
2023-03-13T07:43:50.866Z,13.90
2023-03-13T07:48:53.086Z,14.20
2023-03-13T07:53:54.778Z,14.20
2023-03-13T07:58:56.427Z,14.10
2023-03-13T08:04:01.129Z,14.20
2023-03-13T08:09:02.754Z,14.20
2023-03-13T08:14:04.386Z,14.50
2023-03-13T08:19:06.204Z,14.50
2023-03-13T08:24:08.526Z,14.60
2023-03-13T08:29:14.039Z,14.60
2023-03-13T08:34:16.643Z,14.70
2023-03-13T08:39:19.464Z,14.80
2023-03-13T08:44:21.164Z,14.60
2023-03-13T08:49:22.749Z,14.70
2023-03-13T08:54:24.313Z,14.60
2023-03-13T08:59:26.546Z,14.70
2023-03-13T09:04:28.125Z,14.70
2023-03-13T09:09:29.738Z,14.80
2023-03-13T09:14:31.328Z,14.80
2023-03-13T09:19:32.893Z,14.80
2023-03-13T09:24:34.551Z,14.80
2023-03-13T09:29:39.946Z,14.90
2023-03-13T09:34:41.542Z,14.80
2023-03-13T09:39:43.189Z,14.90
2023-03-13T09:44:58.392Z,14.80
2023-03-13T09:50:04.868Z,14.60
2023-03-13T09:55:32.894Z,14.60
2023-03-13T10:00:37.034Z,14.50
2023-03-13T10:05:43.180Z,14.40
2023-03-13T10:10:48.426Z,14.50
2023-03-13T10:15:52.038Z,14.50
2023-03-13T10:20:56.775Z,14.50
2023-03-13T10:26:00.138Z,14.70
2023-03-13T10:31:17.568Z,14.80
2023-03-13T10:36:19.499Z,14.80
2023-03-13T10:41:27.188Z,14.80
2023-03-13T10:46:30.441Z,14.90
2023-03-13T10:51:37.169Z,14.90
2023-03-13T10:56:38.713Z,15.00
2023-03-13T11:01:42.147Z,15.00
2023-03-13T11:06:50.064Z,15.00
2023-03-13T11:11:55.451Z,14.90
2023-03-13T11:17:00.072Z,15.10
2023-03-13T11:22:07.488Z,15.10
2023-03-13T11:27:28.004Z,15.20
2023-03-13T11:32:41.078Z,15.30
2023-03-13T11:37:44.029Z,15.50
2023-03-13T11:42:54.522Z,15.70
2023-03-13T11:48:02.222Z,16.00
2023-03-13T11:53:10.094Z,16.30
2023-03-13T11:58:11.805Z,16.40
2023-03-13T12:03:20.601Z,16.40
2023-03-13T12:08:30.593Z,16.40
2023-03-13T12:13:35.497Z,16.40
2023-03-13T12:18:40.802Z,16.40
2023-03-13T12:23:46.926Z,16.40
2023-03-13T12:29:07.348Z,16.30
2023-03-13T12:34:18.385Z,16.30
2023-03-13T12:39:22.760Z,16.30
2023-03-13T12:44:24.411Z,16.10
2023-03-13T12:49:44.852Z,16.20
2023-03-13T12:54:46.369Z,16.20
2023-03-13T12:59:52.275Z,16.30
2023-03-13T13:04:54.810Z,16.20
2023-03-13T13:10:11.571Z,16.50
2023-03-13T13:15:22.334Z,16.40
2023-03-13T13:20:27.024Z,16.50
2023-03-13T13:25:33.764Z,16.50
2023-03-13T13:30:35.427Z,16.50
2023-03-13T13:35:37.330Z,16.70
2023-03-13T13:40:38.972Z,16.60
2023-03-13T13:45:55.818Z,17.00
2023-03-13T13:51:14.096Z,17.00
2023-03-13T13:56:27.827Z,17.50
2023-03-13T14:01:29.468Z,17.20
2023-03-13T14:06:35.212Z,17.20
2023-03-13T14:11:39.460Z,17.20
2023-03-13T14:16:43.411Z,17.00
2023-03-13T14:21:45.024Z,17.00
2023-03-13T14:26:46.722Z,16.90
2023-03-13T14:31:58.651Z,17.00
2023-03-13T14:37:16.805Z,16.90
2023-03-13T14:42:19.347Z,16.80
2023-03-13T14:47:31.666Z,16.50
2023-03-13T14:52:34.003Z,16.40
2023-03-13T14:57:35.897Z,16.40
2023-03-13T15:02:38.726Z,16.40
2023-03-13T15:07:47.379Z,16.40
2023-03-13T15:12:49.370Z,16.40
2023-03-13T15:17:50.983Z,16.30
2023-03-13T15:22:52.550Z,16.40
2023-03-13T15:27:54.120Z,16.50
2023-03-13T15:32:55.699Z,16.90
2023-03-13T15:37:58.105Z,17.00
2023-03-13T15:42:59.739Z,17.00
2023-03-13T15:48:01.387Z,17.00
2023-03-13T15:53:04.377Z,16.90
2023-03-13T15:58:05.989Z,16.80
2023-03-13T16:03:13.747Z,16.80
2023-03-13T16:08:29.207Z,16.80
2023-03-13T16:13:35.702Z,16.80
2023-03-13T16:18:37.806Z,16.60
2023-03-13T16:23:39.338Z,16.50
2023-03-13T16:28:40.914Z,16.60
2023-03-13T16:33:42.492Z,16.60
2023-03-13T16:38:44.488Z,16.50
2023-03-13T16:43:46.317Z,16.50
2023-03-13T16:48:48.703Z,16.30
2023-03-13T16:53:51.383Z,16.30
2023-03-13T16:58:53.389Z,16.10
2023-03-13T17:03:55.416Z,16.20
2023-03-13T17:08:58.184Z,16.00
2023-03-13T17:13:59.759Z,15.90
2023-03-13T17:19:01.631Z,15.80
2023-03-13T17:24:03.322Z,15.80
2023-03-13T17:29:05.880Z,15.70
2023-03-13T17:34:08.074Z,15.60
2023-03-13T17:39:11.581Z,15.60
2023-03-13T17:44:13.216Z,15.30
2023-03-13T17:49:16.496Z,15.30
2023-03-13T17:54:18.844Z,15.10
2023-03-13T17:59:20.502Z,15.00
2023-03-13T18:04:22.096Z,15.00
2023-03-13T18:09:23.722Z,14.90
2023-03-13T18:14:25.323Z,14.80
2023-03-13T18:19:27.112Z,14.70
2023-03-13T18:24:28.684Z,14.80
2023-03-13T18:29:30.267Z,14.70
2023-03-13T18:34:34.875Z,14.70
2023-03-13T18:39:36.462Z,14.90
2023-03-13T18:44:38.012Z,14.70
2023-03-13T18:49:39.700Z,14.70
2023-03-13T18:54:41.426Z,14.70
2023-03-13T18:59:43.608Z,14.50
2023-03-13T19:04:47.020Z,14.50
2023-03-13T19:09:48.644Z,14.50
2023-03-13T19:14:50.193Z,14.40
2023-03-13T19:19:57.054Z,14.30
2023-03-13T19:24:58.777Z,14.20
2023-03-13T19:30:00.429Z,14.20
2023-03-13T19:35:02.025Z,14.10
2023-03-13T19:40:04.427Z,13.80
2023-03-13T19:45:06.381Z,13.70
2023-03-13T19:50:15.125Z,13.60
2023-03-13T19:55:16.754Z,13.40
2023-03-13T20:00:19.976Z,13.50
2023-03-13T20:05:21.845Z,13.20
2023-03-13T20:10:23.585Z,13.30
2023-03-13T20:15:25.255Z,13.10
2023-03-13T20:20:27.152Z,13.10
2023-03-13T20:25:28.776Z,13.00
2023-03-13T20:30:30.386Z,13.00
2023-03-13T20:35:31.982Z,12.80
2023-03-13T20:40:34.898Z,12.60
2023-03-13T20:45:36.417Z,12.40
2023-03-13T20:50:41.288Z,12.30
2023-03-13T20:55:43.025Z,12.20
2023-03-13T21:00:44.601Z,12.20
2023-03-13T21:05:46.126Z,12.00
2023-03-13T21:10:47.820Z,11.90
2023-03-13T21:15:49.626Z,11.70
2023-03-13T21:20:51.338Z,11.50
2023-03-13T21:25:55.297Z,11.80
2023-03-13T21:30:56.941Z,12.00
2023-03-13T21:35:58.518Z,12.20
2023-03-13T21:41:00.159Z,12.10
2023-03-13T21:46:01.812Z,12.20
2023-03-13T21:51:03.776Z,12.20
2023-03-13T21:56:05.629Z,12.30
2023-03-13T22:01:07.353Z,12.30
2023-03-13T22:06:16.493Z,12.30
2023-03-13T22:11:18.623Z,12.10
2023-03-13T22:16:25.731Z,12.10
2023-03-13T22:21:27.322Z,12.10
2023-03-13T22:26:28.944Z,12.10
2023-03-13T22:31:31.042Z,12.00
2023-03-13T22:36:32.952Z,11.90
2023-03-13T22:41:34.534Z,11.80
2023-03-13T22:46:36.072Z,11.70
2023-03-13T22:51:37.666Z,11.70
2023-03-13T22:56:39.248Z,11.60
2023-03-13T23:01:40.783Z,11.70
2023-03-13T23:06:42.458Z,11.70
2023-03-13T23:11:44.066Z,11.60
2023-03-13T23:16:45.731Z,11.60
2023-03-13T23:21:47.384Z,11.70
2023-03-13T23:26:49.270Z,11.60
2023-03-13T23:31:51.341Z,11.60
2023-03-13T23:36:53.239Z,11.60
2023-03-13T23:41:54.848Z,11.70
2023-03-13T23:46:57.153Z,11.70
2023-03-13T23:51:58.819Z,11.70
2023-03-13T23:57:00.611Z,11.80
